Livingston Manor, New York
Current Conditions -  °F | °C
As of 6:55 AM on Friday 19 Dec 2014 (Local Time) from KMSV Reporting Station
Overcast Overcast  
Wind Chill: 18°   Ceiling: 1900
Heat Index: 27°   Visibility: 10mi
Dew Point: 19°   Wind: 8mph
Humidity: 74%   Direction: 310°NW
Pressure: 29.97"   Gusts: NA
Location:  41.9°N, 74.83°W
Report Text: KMSV 191155Z AUTO 31007KT 10SM OVC019 M03/M07 A2997 RMK AO1 11020 21030 52014
Loading
Personal Weather Stations






























Interactive Weather Map New forecast layout! Learn more

10-Day Weather Forecast

Advertisements
Track Severe Weather on mobile